| time (UTC) | temp F | wind direction | speed MPH | gust MPH | rain 1hr in | rain 24hr in | rain mn in | humidity % | barometer mb |
| 20260507010017 | 62 | 0.0 | 0.0 | 0.00 | 0.20 | 0.20 | 92 | 1008.6 | |
| 20260507003037 | 63 | 0.0 | 1.0 | 0.02 | 0.20 | 0.20 | 91 | 1007.9 | |
| 20260507000037 | 64 | 0.0 | 6.0 | 0.02 | 0.20 | 0.20 | 88 | 1007.8 | |
| 20260506233018 | 66 | 0.0 | 3.0 | 0.00 | 0.18 | 0.18 | 87 | 1007.2 | |
| 20260506230017 | 67 | 0.0 | 3.0 | 0.00 | 0.18 | 0.18 | 85 | 1007.0 | |
| 20260506223017 | 67 | 225 | 1.0 | 6.0 | 0.00 | 0.18 | 0.18 | 84 | 1007.0 |
| 20260506220017 | 67 | 225 | 1.0 | 9.0 | 0.00 | 0.18 | 0.18 | 84 | 1006.5 |
| 20260506213017 | 67 | 0.0 | 8.0 | 0.00 | 0.18 | 0.18 | 85 | 1006.6 | |
| 20260506210017 | 66 | 225 | 1.0 | 7.0 | 0.00 | 0.18 | 0.18 | 86 | 1006.3 |
| 20260506203017 | 65 | 225 | 1.0 | 9.0 | 0.00 | 0.18 | 0.18 | 87 | 1006.4 |
| 20260506200017 | 64 | 225 | 1.0 | 7.0 | 0.00 | 0.18 | 0.18 | 89 | 1006.3 |
| 20260506193017 | 63 | 225 | 1.0 | 10.0 | 0.00 | 0.18 | 0.18 | 90 | 1006.6 |
| 20260506190019 | 62 | 225 | 1.0 | 9.0 | 0.00 | 0.18 | 0.18 | 92 | 1006.9 |
| 20260506183017 | 62 | 225 | 3.0 | 14.0 | 0.00 | 0.18 | 0.18 | 91 | 1007.2 |
| 20260506180017 | 61 | 203 | 2.0 | 13.0 | 0.01 | 0.18 | 0.18 | 91 | 1007.4 |
| 20260506173017 | 61 | 0.0 | 12.0 | 0.01 | 0.18 | 0.18 | 92 | 1007.3 | |
| 20260506170017 | 61 | 203 | 1.0 | 10.0 | 0.02 | 0.17 | 0.17 | 91 | 1007.6 |
| 20260506163017 | 62 | 203 | 3.0 | 15.0 | 0.05 | 0.17 | 0.17 | 90 | 1007.7 |
| 20260506160015 | 62 | 180 | 2.0 | 8.0 | 0.08 | 0.15 | 0.15 | 91 | 1007.4 |
| 20260506153018 | 62 | 203 | 1.0 | 9.0 | 0.07 | 0.12 | 0.12 | 91 | 1008.5 |
| 20260506150017 | 62 | 225 | 1.0 | 12.0 | 0.05 | 0.07 | 0.07 | 89 | 1008.4 |
| 20260506143017 | 63 | 203 | 1.0 | 7.0 | 0.04 | 0.05 | 0.05 | 88 | 1008.3 |
| 20260506140037 | 63 | 0.0 | 1.0 | 0.02 | 0.02 | 0.02 | 86 | 1008.5 | |
| 20260506133017 | 64 | 0.0 | 5.0 | 0.01 | 0.01 | 0.01 | 85 | 1008.6 | |
| 20260506130017 | 64 | 225 | 1.0 | 11.0 | 0.00 | 0.00 | 0.00 | 81 | 1008.7 |
| 20260506123017 | 65 | 225 | 2.0 | 10.0 | 0.00 | 0.00 | 0.00 | 78 | 1008.8 |
| 20260506120016 | 66 | 225 | 2.0 | 12.0 | 0.00 | 0.00 | 0.00 | 75 | 1008.5 |
| 20260506113018 | 66 | 203 | 2.0 | 10.0 | 0.00 | 0.00 | 0.00 | 75 | 1008.5 |
| 20260506110018 | 66 | 203 | 3.0 | 13.0 | 0.00 | 0.00 | 0.00 | 74 | 1008.5 |
| 20260506103017 | 67 | 203 | 4.0 | 14.0 | 0.00 | 0.00 | 0.00 | 72 | 1008.1 |
| 20260506100018 | 67 | 203 | 3.0 | 17.0 | 0.00 | 0.00 | 0.00 | 71 | 1008.0 |
| 20260506093018 | 68 | 203 | 3.0 | 14.0 | 0.00 | 0.00 | 0.00 | 70 | 1007.9 |
| 20260506090017 | 68 | 203 | 3.0 | 14.0 | 0.00 | 0.00 | 0.00 | 68 | 1008.0 |
| 20260506083018 | 68 | 203 | 3.0 | 13.0 | 0.00 | 0.00 | 0.00 | 66 | 1008.2 |
| 20260506073016 | 68 | 203 | 1.0 | 6.0 | 0.00 | 0.00 | 0.00 | 63 | 1008.3 |
| 20260506043016 | 69 | 0.0 | 6.0 | 0.00 | 0.00 | 0.00 | 56 | 1009.5 | |
| 20260506040036 | 70 | 203 | 1.0 | 5.0 | 0.00 | 0.00 | 0.00 | 54 | 1009.4 |
| 20260506033038 | 70 | 0.0 | 7.0 | 0.00 | 0.00 | 0.00 | 53 | 1009.5 | |
| 20260506030017 | 70 | 0.0 | 0.0 | 0.00 | 0.00 | 0.00 | 53 | 1009.4 | |
| 20260506023018 | 72 | 203 | 1.0 | 14.0 | 0.00 | 0.00 | 0.00 | 51 | 1009.4 |
| 20260506020019 | 74 | 203 | 2.0 | 15.0 | 0.00 | 0.00 | 0.00 | 46 | 1009.3 |
| 20260506013037 | 74 | 203 | 2.0 | 13.0 | 0.00 | 0.00 | 0.00 | 44 | 1009.0 |